Time;durP1;ratioP1;P1;durP2;ratioP2;P2;SDS_P1;SDS_P2;PMS_P1;PMS_P2;Temp;Humidity;BMP_temperature;BMP_pressure;BME280_temperature;BME280_humidity;BME280_pressure;Samples;Min_cycle;Max_cycle;Signal;HPM_P1;HPM_P2
2022/12/13 00:00:44;;;;;;;131.65;44.70;;;;;;;3.20;100.00;98422.00;5017649;28;20036;-79
2022/12/13 00:03:10;;;;;;;142.02;43.13;;;;;;;3.35;100.00;98421.34;4990086;28;20083;-79
2022/12/13 00:05:43;;;;;;;140.57;42.72;;;;;;;3.53;100.00;98434.91;5027262;28;20037;-78
2022/12/13 00:08:08;;;;;;;169.82;47.22;;;;;;;3.40;100.00;98429.44;5021747;28;20076;-79
2022/12/13 00:10:34;;;;;;;137.57;41.75;;;;;;;3.16;100.00;98384.38;5022185;28;20418;-80
2022/12/13 00:12:59;;;;;;;170.00;44.78;;;;;;;3.31;100.00;98399.28;5021229;28;20037;-80
2022/12/13 00:15:25;;;;;;;160.80;41.72;;;;;;;3.28;100.00;98406.41;5021408;28;20068;-78
2022/12/13 00:17:50;;;;;;;123.63;41.53;;;;;;;3.13;100.00;98382.91;5007128;28;20033;-79
2022/12/13 00:20:16;;;;;;;119.40;40.28;;;;;;;3.48;100.00;98421.63;5025833;28;20057;-79
2022/12/13 00:22:42;;;;;;;151.02;40.80;;;;;;;3.40;100.00;98419.06;5024639;28;20032;-79
2022/12/13 00:25:08;;;;;;;127.70;40.22;;;;;;;3.41;100.00;98431.06;5009954;28;20045;-76
2022/12/13 00:27:34;;;;;;;124.60;38.95;;;;;;;3.24;100.00;98423.28;4984498;28;20079;-77
2022/12/13 00:29:59;;;;;;;131.15;37.40;;;;;;;3.21;100.00;98425.38;5007450;28;20049;-76
2022/12/13 00:32:26;;;;;;;123.72;37.97;;;;;;;3.32;100.00;98416.47;4988295;28;20030;-78
2022/12/13 00:34:51;;;;;;;110.57;36.85;;;;;;;3.32;100.00;98413.84;5005602;28;20439;-79
2022/12/13 00:37:20;;;;;;;108.68;36.83;;;;;;;3.41;100.00;98425.88;5003590;28;20156;-79
2022/12/13 00:39:46;;;;;;;138.80;35.70;;;;;;;3.28;100.00;98421.19;5011407;28;20082;-77
2022/12/13 00:42:12;;;;;;;145.35;37.85;;;;;;;2.85;100.00;98367.69;5007326;28;20025;-78
2022/12/13 00:44:38;;;;;;;105.68;33.83;;;;;;;3.06;100.00;98401.88;5007960;28;20430;-78
2022/12/13 00:47:04;;;;;;;121.00;34.47;;;;;;;3.16;100.00;98410.31;4989541;28;20425;-78
2022/12/13 00:49:29;;;;;;;111.25;37.92;;;;;;;3.32;100.00;98413.84;4991219;28;20061;-79
2022/12/13 00:51:56;;;;;;;116.35;38.05;;;;;;;3.36;100.00;98420.38;5004855;28;20039;-78
2022/12/13 00:54:22;;;;;;;110.55;36.03;;;;;;;3.32;100.00;98426.84;5028431;28;20022;-78
2022/12/13 00:56:47;;;;;;;156.80;36.65;;;;;;;3.16;100.00;98407.72;5026817;28;20475;-79
2022/12/13 00:59:14;;;;;;;108.32;36.20;;;;;;;3.26;100.00;98416.13;4990142;28;20026;-78
2022/12/13 01:01:41;;;;;;;106.60;34.65;;;;;;;3.33;100.00;98412.88;4991355;28;20025;-79
2022/12/13 01:04:06;;;;;;;177.23;40.22;;;;;;;3.26;100.00;98423.91;4990892;28;20036;-78
2022/12/13 01:06:50;;;;;;;117.45;36.47;;;;;;;3.51;100.00;98420.50;5024201;28;20052;-79
2022/12/13 01:09:29;;;;;;;107.28;36.08;;;;;;;3.41;100.00;98415.50;4991433;28;20034;-77
2022/12/13 01:12:04;;;;;;;118.10;36.55;;;;;;;3.39;100.00;98409.66;5025561;28;20383;-79
2022/12/13 01:14:30;;;;;;;143.45;37.92;;;;;;;3.24;100.00;98415.50;4985594;28;20071;-77
2022/12/13 01:16:56;;;;;;;136.90;38.47;;;;;;;3.35;100.00;98413.56;5002660;28;20387;-77
2022/12/13 01:19:27;;;;;;;122.35;36.92;;;;;;;3.25;100.00;98416.31;5003628;28;20116;-77
2022/12/13 01:21:58;;;;;;;181.35;38.70;;;;;;;3.08;100.00;98379.19;4989829;28;20030;-77
2022/12/13 01:24:24;;;;;;;112.80;33.85;;;;;;;3.20;100.00;98401.25;5007511;28;20434;-77
2022/12/13 01:26:51;;;;;;;192.02;39.97;;;;;;;3.19;100.00;98403.97;5003101;28;20483;-78
2022/12/13 01:29:19;;;;;;;104.57;34.15;;;;;;;3.15;100.00;98400.91;5020905;28;20430;-79
2022/12/13 01:31:46;;;;;;;168.05;37.78;;;;;;;2.94;100.00;98391.81;5006766;28;20041;-79
2022/12/13 01:34:14;;;;;;;179.00;36.85;;;;;;;2.95;100.00;98396.06;5004693;28;20053;-78
2022/12/13 01:36:41;;;;;;;112.72;35.47;;;;;;;2.99;100.00;98391.34;4983818;28;20093;-77
2022/12/13 01:39:08;;;;;;;106.35;34.97;;;;;;;3.05;100.00;98389.88;5021428;28;20028;-77
2022/12/13 01:41:34;;;;;;;182.80;37.22;;;;;;;2.93;100.00;98405.75;5024828;28;20452;-79
2022/12/13 01:44:02;;;;;;;102.55;33.20;;;;;;;2.95;100.00;98390.88;5001828;28;20356;-79
2022/12/13 01:46:34;;;;;;;114.95;34.58;;;;;;;3.18;100.00;98410.13;5008657;28;20053;-78
2022/12/13 01:48:59;;;;;;;111.28;34.30;;;;;;;3.09;100.00;98401.56;5005152;28;20041;-78
2022/12/13 01:51:42;;;;;;;240.40;43.15;;;;;;;3.15;100.00;98406.09;5020358;28;20026;-78
2022/12/13 01:54:13;;;;;;;129.27;37.50;;;;;;;3.20;100.00;98398.66;5003700;28;20069;-78
2022/12/13 01:56:46;;;;;;;178.07;39.28;;;;;;;3.11;100.00;98378.84;4985254;28;20033;-78
2022/12/13 01:59:15;;;;;;;107.38;35.92;;;;;;;3.04;100.00;98375.31;5006847;28;20529;-79
2022/12/13 02:01:41;;;;;;;114.78;34.50;;;;;;;3.09;100.00;98396.38;5004401;28;20030;-78
2022/12/13 02:04:07;;;;;;;136.82;34.22;;;;;;;2.99;100.00;98402.53;5006708;28;20038;-77
2022/12/13 02:06:36;;;;;;;109.32;33.53;;;;;;;3.10;100.00;98393.63;4988583;28;20033;-77
2022/12/13 02:09:04;;;;;;;128.60;34.58;;;;;;;2.90;100.00;98372.38;5023588;28;20084;-77
2022/12/13 02:11:31;;;;;;;122.70;35.45;;;;;;;3.08;100.00;98408.53;5021628;28;20088;-77
2022/12/13 02:13:57;;;;;;;115.90;35.20;;;;;;;3.06;100.00;98401.88;5022014;28;20037;-78
2022/12/13 02:16:34;;;;;;;125.97;36.67;;;;;;;3.22;100.00;98411.44;5000670;28;20501;-76
2022/12/13 02:19:03;;;;;;;122.60;35.15;;;;;;;3.19;100.00;98416.94;5017461;28;20026;-79
2022/12/13 02:21:46;;;;;;;159.25;37.83;;;;;;;3.10;100.00;98400.56;4992209;28;20053;-78
2022/12/13 02:24:35;;;;;;;105.20;28.97;;;;;;;3.41;100.00;98415.50;5008219;28;20109;-77
2022/12/13 02:27:11;;;;;;;132.15;39.00;;;;;;;3.35;100.00;98395.41;5018741;28;20038;-79
2022/12/13 02:29:55;;;;;;;139.25;36.65;;;;;;;3.31;100.00;98414.84;4986542;28;20030;-78
2022/12/13 02:32:37;;;;;;;130.68;36.80;;;;;;;3.46;100.00;98418.41;5015280;28;20022;-77
2022/12/13 02:35:21;;;;;;;137.15;35.92;;;;;;;3.27;100.00;98422.94;5003945;28;20124;-78
2022/12/13 02:37:46;;;;;;;127.43;36.42;;;;;;;3.16;100.00;98412.91;5001245;28;20022;-79
2022/12/13 02:40:34;;;;;;;133.98;34.70;;;;;;;3.26;100.00;98403.16;5003405;28;20029;-78
2022/12/13 02:43:09;;;;;;;114.10;34.15;;;;;;;3.20;100.00;98398.66;5007640;28;20415;-78
2022/12/13 02:45:46;;;;;;;129.07;38.88;;;;;;;3.17;100.00;98411.94;5005971;28;20503;-78
2022/12/13 02:48:16;;;;;;;149.93;37.85;;;;;;;3.11;100.00;98402.19;4988533;28;20026;-79
2022/12/13 02:50:44;;;;;;;122.72;32.40;;;;;;;3.25;100.00;98404.16;5001466;28;20549;-78
2022/12/13 02:53:11;;;;;;;109.55;32.60;;;;;;;3.26;100.00;98392.78;5023143;28;20025;-79
2022/12/13 02:55:39;;;;;;;111.40;33.58;;;;;;;3.17;100.00;98373.03;5003189;28;20041;-79
2022/12/13 02:58:04;;;;;;;116.05;33.15;;;;;;;3.19;100.00;98406.56;5021131;28;20033;-78
2022/12/13 03:00:53;;;;;;;116.75;33.78;;;;;;;3.02;100.00;98369.47;5019904;28;20030;-79
2022/12/13 03:03:25;;;;;;;117.75;32.15;;;;;;;3.16;100.00;98402.53;4959213;28;20067;-79
2022/12/13 03:08:47;;;;;;;111.65;33.95;;;;;;;3.35;100.00;98405.78;5020823;28;20032;-77
2022/12/13 03:11:16;;;;;;;132.60;37.53;;;;;;;3.18;100.00;98395.41;5023239;28;20446;-77
2022/12/13 03:13:53;;;;;;;117.82;33.42;;;;;;;3.25;100.00;98398.97;4994373;28;20042;-78
2022/12/13 03:16:35;;;;;;;107.32;31.02;;;;;;;3.24;100.00;98406.88;5005205;28;20034;-81
2022/12/13 03:19:05;;;;;;;116.30;33.22;;;;;;;3.26;100.00;98399.78;5003832;28;20025;-78
2022/12/13 03:21:42;;;;;;;100.07;31.92;;;;;;;3.34;100.00;98406.72;5023626;28;20026;-77
2022/12/13 03:24:08;;;;;;;104.57;33.00;;;;;;;3.17;100.00;98401.56;5001302;28;20030;-78
2022/12/13 03:26:36;;;;;;;89.18;30.48;;;;;;;3.21;100.00;98397.66;5002078;28;20037;-78
2022/12/13 03:29:02;;;;;;;98.32;30.13;;;;;;;3.13;100.00;98389.88;5023567;28;20040;-79
2022/12/13 03:31:27;;;;;;;110.65;29.50;;;;;;;3.22;100.00;98417.44;5004882;28;20033;-80
2022/12/13 03:33:53;;;;;;;102.93;30.65;;;;;;;3.08;100.00;98402.53;5000618;28;20026;-80
2022/12/13 03:36:19;;;;;;;102.72;30.67;;;;;;;3.23;100.00;98416.47;5003690;28;20033;-79
2022/12/13 03:38:51;;;;;;;99.13;31.77;;;;;;;3.36;100.00;98404.81;5006922;28;20114;-78
2022/12/13 03:41:20;;;;;;;107.35;33.60;;;;;;;3.25;100.00;98401.56;4985351;28;20125;-80
2022/12/13 03:43:46;;;;;;;104.85;32.80;;;;;;;3.32;100.00;98406.91;4988849;28;20052;-79
2022/12/13 03:46:12;;;;;;;99.90;31.15;;;;;;;3.29;100.00;98394.25;4987982;28;20068;-79
2022/12/13 03:48:38;;;;;;;102.68;32.30;;;;;;;3.40;100.00;98404.28;5000923;28;20041;-79
2022/12/13 03:51:04;;;;;;;106.32;31.48;;;;;;;3.46;100.00;98402.81;5020748;28;20041;-79
2022/12/13 03:53:31;;;;;;;113.28;33.00;;;;;;;3.33;100.00;98392.13;4985047;28;20037;-79
2022/12/13 03:55:56;;;;;;;107.65;31.00;;;;;;;3.23;100.00;98385.34;5023214;28;20033;-79
2022/12/13 03:58:22;;;;;;;91.95;31.02;;;;;;;3.39;100.00;98412.25;5002190;28;20061;-80
2022/12/13 04:00:48;;;;;;;99.65;29.38;;;;;;;3.34;100.00;98404.94;4997133;28;20034;-79
2022/12/13 04:03:14;;;;;;;101.15;31.35;;;;;;;3.26;100.00;98408.34;5019063;28;20455;-78
2022/12/13 04:05:40;;;;;;;105.72;31.55;;;;;;;3.33;100.00;98399.91;5017065;28;20061;-78
2022/12/13 04:08:06;;;;;;;97.43;29.30;;;;;;;3.37;100.00;98399.44;5023641;28;20068;-79
2022/12/13 04:10:32;;;;;;;90.35;28.65;;;;;;;3.22;100.00;98391.50;5019403;28;20121;-78
2022/12/13 04:15:47;;;;;;;99.82;31.17;;;;;;;3.36;100.00;98399.63;5020930;28;20029;-78
2022/12/13 04:18:20;;;;;;;101.32;32.17;;;;;;;3.20;100.00;98379.66;5024403;28;20395;-80
2022/12/13 04:20:46;;;;;;;92.30;30.63;;;;;;;3.29;100.00;98392.47;5020718;28;20479;-78
2022/12/13 04:23:12;;;;;;;90.32;29.70;;;;;;;3.39;100.00;98394.09;5022583;28;20036;-79
2022/12/13 04:25:39;;;;;;;90.50;28.13;;;;;;;3.45;100.00;98398.63;4984582;28;20030;-79
2022/12/13 04:28:05;;;;;;;86.85;27.75;;;;;;;3.36;100.00;98391.84;5018878;28;20034;-79
2022/12/13 04:30:31;;;;;;;99.85;28.92;;;;;;;3.17;100.00;98364.44;5014770;28;20042;-79
2022/12/13 04:32:56;;;;;;;95.68;29.40;;;;;;;3.32;100.00;98395.69;5002093;28;20037;-79
2022/12/13 04:35:22;;;;;;;98.72;30.58;;;;;;;3.25;100.00;98390.38;5001890;28;20112;-79
2022/12/13 04:37:48;;;;;;;85.20;27.50;;;;;;;3.25;100.00;98385.19;5005544;28;20032;-80
2022/12/13 04:40:13;;;;;;;86.15;28.13;;;;;;;3.26;100.00;98395.38;5002005;28;20041;-78
2022/12/13 04:42:39;;;;;;;97.30;29.92;;;;;;;3.21;100.00;98384.69;5003077;28;20149;-79
2022/12/13 04:45:06;;;;;;;83.35;29.05;;;;;;;3.31;100.00;98371.56;5003090;28;20050;-79
2022/12/13 04:47:31;;;;;;;94.22;29.65;;;;;;;3.16;100.00;98355.84;5000514;28;20379;-79
2022/12/13 04:49:57;;;;;;;98.07;31.35;;;;;;;3.37;100.00;98381.28;5018891;28;20033;-79
2022/12/13 04:52:22;;;;;;;88.13;29.13;;;;;;;3.22;100.00;98372.53;5020512;28;20022;-78
2022/12/13 04:54:48;;;;;;;89.55;29.20;;;;;;;3.25;100.00;98375.63;5018324;28;20052;-77
2022/12/13 04:57:14;;;;;;;80.45;28.38;;;;;;;3.30;100.00;98377.72;4985422;28;20475;-77
2022/12/13 04:59:40;;;;;;;95.57;29.58;;;;;;;3.32;100.00;98372.34;5003218;28;20029;-78
2022/12/13 05:02:07;;;;;;;94.35;32.67;;;;;;;3.28;100.00;98364.91;4990425;28;20037;-81
2022/12/13 05:04:33;;;;;;;100.50;32.10;;;;;;;3.37;100.00;98372.69;5005685;28;20498;-80
2022/12/13 05:06:59;;;;;;;108.22;31.38;;;;;;;3.29;100.00;98371.72;5023048;28;20033;-79
2022/12/13 05:09:25;;;;;;;86.85;27.67;;;;;;;3.39;100.00;98379.31;5030070;28;20029;-79
2022/12/13 05:11:50;;;;;;;90.00;29.52;;;;;;;3.24;100.00;98368.81;4992981;28;20122;-81
2022/12/13 05:14:16;;;;;;;97.38;31.58;;;;;;;3.24;100.00;98379.19;5005236;28;20081;-81
2022/12/13 05:16:42;;;;;;;88.72;29.38;;;;;;;3.33;100.00;98381.75;5022827;28;20113;-80
2022/12/13 05:19:07;;;;;;;93.03;28.85;;;;;;;3.38;100.00;98384.69;5007964;28;20487;-81
2022/12/13 05:21:33;;;;;;;95.05;29.65;;;;;;;3.25;100.00;98375.63;4990720;28;20483;-79
2022/12/13 05:24:02;;;;;;;97.70;29.25;;;;;;;3.37;100.00;98383.06;5008184;28;20063;-79
2022/12/13 05:26:28;;;;;;;91.22;29.13;;;;;;;3.31;100.00;98383.72;5004721;28;20049;-78
2022/12/13 05:28:55;;;;;;;96.82;32.15;;;;;;;3.28;100.00;98385.66;5022438;28;20036;-78
2022/12/13 05:31:21;;;;;;;92.72;30.73;;;;;;;3.48;100.00;98379.31;5008165;28;20050;-78
2022/12/13 05:33:47;;;;;;;94.15;29.58;;;;;;;3.57;100.00;98384.34;5024411;28;20491;-80
2022/12/13 05:36:12;;;;;;;99.03;35.97;;;;;;;3.58;100.00;98385.13;5002181;28;20391;-80
2022/12/13 05:38:38;;;;;;;96.03;32.92;;;;;;;3.57;100.00;98381.75;5006476;28;20021;-79
2022/12/13 05:41:05;;;;;;;105.95;36.20;;;;;;;3.56;100.00;98377.53;5024302;28;20035;-78
2022/12/13 05:43:30;;;;;;;110.05;33.63;;;;;;;3.70;100.00;98393.38;5005886;28;20033;-78
2022/12/13 05:45:56;;;;;;;99.57;32.67;;;;;;;3.72;100.00;98386.22;5008633;28;20068;-78
2022/12/13 05:48:22;;;;;;;101.50;31.27;;;;;;;3.72;100.00;98389.66;5001827;28;20029;-80
2022/12/13 05:50:48;;;;;;;99.18;31.55;;;;;;;3.34;100.00;98378.19;5005854;28;20033;-79
2022/12/13 05:53:16;;;;;;;93.65;29.88;;;;;;;3.50;100.00;98383.34;4993460;28;20034;-79
2022/12/13 05:55:42;;;;;;;107.80;31.20;;;;;;;3.48;100.00;98374.94;5020562;28;20045;-79
2022/12/13 05:58:11;;;;;;;89.10;29.48;;;;;;;3.46;100.00;98371.69;4993005;28;20038;-79
2022/12/13 06:00:38;;;;;;;93.53;31.45;;;;;;;3.55;100.00;98375.09;5002495;28;20129;-78
2022/12/13 06:03:04;;;;;;;96.75;31.50;;;;;;;3.49;100.00;98370.56;5001656;28;20034;-80
2022/12/13 06:05:29;;;;;;;95.57;30.60;;;;;;;3.45;100.00;98372.66;5003949;28;20479;-79
2022/12/13 06:07:56;;;;;;;87.68;28.52;;;;;;;3.69;100.00;98386.56;5016060;28;20030;-78
2022/12/13 06:10:22;;;;;;;93.05;28.88;;;;;;;3.57;100.00;98384.34;5022714;28;20452;-79
2022/12/13 06:12:47;;;;;;;87.40;28.60;;;;;;;3.59;100.00;98380.75;5004756;28;20073;-80
2022/12/13 06:15:14;;;;;;;95.93;31.42;;;;;;;3.59;100.00;98380.75;5023324;28;20066;-78
2022/12/13 06:17:40;;;;;;;94.18;31.23;;;;;;;3.51;100.00;98374.59;5002660;28;20443;-78
2022/12/13 06:20:06;;;;;;;88.03;30.77;;;;;;;3.64;100.00;98388.84;5028266;28;20032;-78
2022/12/13 06:22:32;;;;;;;84.60;29.38;;;;;;;3.59;100.00;98375.56;5017050;28;20041;-79
2022/12/13 06:24:57;;;;;;;86.82;29.02;;;;;;;3.64;100.00;98383.66;5007735;28;20132;-79
2022/12/13 06:27:23;;;;;;;107.97;31.92;;;;;;;3.67;100.00;98383.31;5004281;28;20456;-79
2022/12/13 06:29:49;;;;;;;95.07;31.35;;;;;;;3.57;100.00;98376.56;5002592;28;20042;-80
2022/12/13 06:32:14;;;;;;;95.07;29.23;;;;;;;3.78;100.00;98392.53;5024823;28;20060;-80
2022/12/13 06:34:40;;;;;;;87.50;29.92;;;;;;;3.68;100.00;98380.59;5002635;28;20033;-80
2022/12/13 06:37:09;;;;;;;99.50;31.02;;;;;;;3.70;100.00;98368.25;5023616;28;20040;-80
2022/12/13 06:39:35;;;;;;;88.88;31.17;;;;;;;3.72;100.00;98371.47;4991248;28;20025;-81
2022/12/13 06:42:02;;;;;;;98.05;30.67;;;;;;;3.71;100.00;98384.59;4994038;28;20056;-80
2022/12/13 06:44:27;;;;;;;100.10;29.92;;;;;;;3.59;100.00;98383.34;5023998;28;20491;-79
2022/12/13 06:46:53;;;;;;;82.38;28.42;;;;;;;3.58;100.00;98374.75;4987932;28;20046;-77
2022/12/13 06:49:19;;;;;;;88.30;28.77;;;;;;;3.71;100.00;98398.41;5003226;28;20120;-77
2022/12/13 06:51:45;;;;;;;89.85;30.23;;;;;;;3.65;100.00;98390.47;4992171;28;20108;-78
2022/12/13 06:54:10;;;;;;;89.70;30.35;;;;;;;3.62;100.00;98383.81;4989230;28;20525;-78
2022/12/13 06:56:36;;;;;;;83.25;28.52;;;;;;;3.66;100.00;98392.09;5026100;28;20083;-78
2022/12/13 06:59:01;;;;;;;88.32;28.75;;;;;;;3.66;100.00;98376.53;4989767;28;20025;-78
2022/12/13 07:01:28;;;;;;;82.90;31.77;;;;;;;3.73;100.00;98380.06;4988063;28;20033;-77
2022/12/13 07:03:54;;;;;;;94.43;29.75;;;;;;;3.67;100.00;98358.19;5017816;28;20026;-77
2022/12/13 07:06:22;;;;;;;82.13;28.25;;;;;;;3.77;100.00;98383.16;5003789;28;20025;-79
2022/12/13 07:08:53;;;;;;;80.97;28.40;;;;;;;3.77;100.00;98389.16;4998284;28;20026;-78
2022/12/13 07:11:24;;;;;;;81.63;27.40;;;;;;;3.63;100.00;98366.47;5000474;28;20038;-78
2022/12/13 07:13:50;;;;;;;78.47;27.52;;;;;;;3.69;100.00;98371.00;5020684;28;21691;-79
2022/12/13 07:16:17;;;;;;;79.78;27.98;;;;;;;3.74;100.00;98378.28;5002789;28;20045;-79
2022/12/13 07:18:42;;;;;;;83.55;28.13;;;;;;;3.70;100.00;98383.81;4984405;28;20606;-79
2022/12/13 07:21:10;;;;;;;86.10;29.73;;;;;;;3.74;100.00;98381.72;4988226;28;20030;-78
2022/12/13 07:23:37;;;;;;;83.07;29.48;;;;;;;3.76;100.00;98387.53;5000045;28;20121;-79
2022/12/13 07:26:04;;;;;;;85.03;30.05;;;;;;;3.48;100.00;98363.75;5020733;28;20036;-77
2022/12/13 07:28:36;;;;;;;84.85;29.73;;;;;;;3.72;100.00;98370.66;5023684;28;20487;-78
2022/12/13 07:31:05;;;;;;;83.97;29.25;;;;;;;3.66;100.00;98376.53;4990528;28;20116;-78
2022/12/13 07:33:31;;;;;;;80.20;26.45;;;;;;;3.69;100.00;98381.38;5000935;28;20030;-79
2022/12/13 07:36:11;;;;;;;57.05;22.90;;;;;;;3.50;100.00;98352.22;4983965;28;20536;-78
2022/12/13 07:38:38;;;;;;;64.10;24.05;;;;;;;3.57;100.00;98368.75;5023324;28;20025;-79
2022/12/13 07:41:04;;;;;;;73.25;26.00;;;;;;;3.54;100.00;98358.72;5003669;28;20108;-80
2022/12/13 07:43:31;;;;;;;80.72;27.33;;;;;;;3.50;100.00;98378.16;5000679;28;20037;-79
2022/12/13 07:46:03;;;;;;;77.70;27.67;;;;;;;3.61;100.00;98389.97;5004583;28;20085;-78
2022/12/13 07:48:29;;;;;;;85.05;28.90;;;;;;;3.26;100.00;98337.53;5021564;28;20033;-80
2022/12/13 07:51:01;;;;;;;82.28;28.40;;;;;;;3.46;100.00;98344.97;5001515;28;20031;-81
2022/12/13 07:53:27;;;;;;;82.07;29.33;;;;;;;3.61;100.00;98358.06;5000715;28;20034;-78
2022/12/13 07:55:53;;;;;;;80.82;26.63;;;;;;;3.29;100.00;98340.59;5001696;28;20026;-81
2022/12/13 07:58:21;;;;;;;60.50;25.25;;;;;;;3.50;100.00;98365.19;5024002;28;20138;-82
2022/12/13 08:00:47;;;;;;;50.30;20.45;;;;;;;3.54;100.00;98374.28;5019326;28;20112;-82
2022/12/13 08:03:14;;;;;;;52.30;20.30;;;;;;;3.32;100.00;98367.16;5003100;28;20050;-80
2022/12/13 08:05:40;;;;;;;49.15;20.90;;;;;;;3.47;100.00;98385.50;5005967;28;20033;-78
2022/12/13 08:08:08;;;;;;;57.72;24.10;;;;;;;3.41;100.00;98359.22;4999077;28;20034;-81
2022/12/13 08:10:35;;;;;;;54.60;22.02;;;;;;;3.41;100.00;98366.19;5018622;28;21730;-81
2022/12/13 08:13:02;;;;;;;48.33;20.50;;;;;;;3.36;100.00;98387.44;5020209;28;20487;-84
2022/12/13 08:15:27;;;;;;;52.17;20.63;;;;;;;3.24;100.00;98394.75;4986426;28;20034;-81
2022/12/13 08:17:57;;;;;;;49.33;19.73;;;;;;;3.34;100.00;98393.75;5003622;28;20021;-81
2022/12/13 08:20:22;;;;;;;51.28;20.25;;;;;;;3.22;100.00;98375.94;4988919;28;20081;-84
2022/12/13 08:22:56;;;;;;;59.60;22.25;;;;;;;3.40;100.00;98382.75;5001005;28;20029;-82
2022/12/13 08:25:22;;;;;;;61.17;23.45;;;;;;;3.44;100.00;98391.81;4998794;28;20080;-83
2022/12/13 08:27:48;;;;;;;58.63;22.05;;;;;;;3.47;100.00;98377.72;5002073;28;20037;-83
2022/12/13 08:30:14;;;;;;;49.00;20.30;;;;;;;3.50;100.00;98383.34;5016965;28;20116;-83
2022/12/13 08:32:40;;;;;;;55.47;23.02;;;;;;;3.61;100.00;98395.19;4997097;28;20034;-82
2022/12/13 08:35:06;;;;;;;57.97;22.27;;;;;;;3.54;100.00;98374.28;5024739;28;20040;-86
2022/12/13 08:37:32;;;;;;;51.42;22.38;;;;;;;3.68;100.00;98393.56;4988314;28;20026;-81
2022/12/13 08:39:57;;;;;;;58.65;23.77;;;;;;;3.60;100.00;98390.16;5005265;28;20092;-80
2022/12/13 08:42:24;;;;;;;57.58;21.35;;;;;;;3.70;100.00;98414.13;5001872;28;20038;-81
2022/12/13 08:44:51;;;;;;;56.92;22.00;;;;;;;3.72;100.00;98419.97;4987803;28;22195;-81
2022/12/13 08:47:21;;;;;;;64.63;23.83;;;;;;;3.64;100.00;98413.03;4990253;28;20093;-80
2022/12/13 08:49:46;;;;;;;65.88;23.88;;;;;;;3.42;100.00;98385.97;5004198;28;20112;-80
2022/12/13 08:52:12;;;;;;;60.45;22.65;;;;;;;3.53;100.00;98403.00;5021086;28;20117;-82
2022/12/13 08:54:37;;;;;;;60.10;24.33;;;;;;;3.67;100.00;98417.06;5023363;28;20065;-81
2022/12/13 08:57:03;;;;;;;58.70;24.85;;;;;;;3.56;100.00;98407.84;5023225;28;20082;-81
2022/12/13 08:59:29;;;;;;;62.55;23.02;;;;;;;3.71;100.00;98415.75;5023517;28;20030;-80
2022/12/13 09:01:55;;;;;;;60.10;22.55;;;;;;;3.69;100.00;98412.53;5004379;28;20083;-81
2022/12/13 09:04:20;;;;;;;55.20;22.15;;;;;;;3.56;100.00;98390.50;5005233;28;20442;-79
2022/12/13 09:06:46;;;;;;;55.17;23.35;;;;;;;3.60;100.00;98392.75;5003520;28;20029;-79
2022/12/13 09:09:12;;;;;;;59.78;24.08;;;;;;;3.59;100.00;98404.91;5021750;28;20120;-80
2022/12/13 09:11:39;;;;;;;62.95;24.70;;;;;;;3.63;100.00;98388.03;5003704;28;20034;-79
2022/12/13 09:14:05;;;;;;;53.63;23.08;;;;;;;3.65;100.00;98401.69;5019568;28;20088;-81
2022/12/13 09:16:35;;;;;;;59.70;22.77;;;;;;;3.72;100.00;98388.81;5018820;28;20030;-80
2022/12/13 09:19:01;;;;;;;58.45;22.77;;;;;;;3.85;100.00;98402.09;5002017;28;20021;-80
2022/12/13 09:21:27;;;;;;;64.70;23.05;;;;;;;3.90;100.00;98398.19;5022337;28;20061;-82
2022/12/13 09:23:53;;;;;;;58.83;22.42;;;;;;;3.70;100.00;98389.00;5017499;28;20379;-80
2022/12/13 09:26:20;;;;;;;61.35;23.02;;;;;;;3.56;100.00;98393.09;5003653;28;20124;-81
2022/12/13 09:28:46;;;;;;;56.88;22.48;;;;;;;3.71;100.00;98376.81;5001436;28;20034;-81
2022/12/13 09:31:17;;;;;;;57.90;22.83;;;;;;;3.92;100.00;98391.03;5022646;28;20494;-82
2022/12/13 09:33:44;;;;;;;57.25;22.75;;;;;;;3.78;100.00;98395.97;5025640;28;20086;-80
2022/12/13 09:36:12;;;;;;;60.95;23.92;;;;;;;3.69;100.00;98397.78;5003814;28;20036;-79
2022/12/13 09:38:38;;;;;;;60.53;26.17;;;;;;;3.46;100.00;98376.88;5000843;28;20030;-80
2022/12/13 09:41:20;;;;;;;62.05;25.50;;;;;;;3.36;100.00;98376.25;5017000;28;20075;-80
2022/12/13 09:43:56;;;;;;;61.63;24.23;;;;;;;3.41;100.00;98389.56;5015455;28;20025;-81
2022/12/13 09:46:44;;;;;;;64.97;25.08;;;;;;;3.40;100.00;98390.53;5020473;28;20097;-83
2022/12/13 09:49:40;;;;;;;66.30;25.98;;;;;;;3.57;100.00;98381.75;5022071;28;20029;-82
2022/12/13 09:52:11;;;;;;;67.00;26.88;;;;;;;3.22;100.00;98373.34;5016977;28;20052;-80
2022/12/13 09:54:38;;;;;;;62.92;24.90;;;;;;;3.54;100.00;98384.66;5018670;28;20033;-79
2022/12/13 09:57:03;;;;;;;63.78;26.73;;;;;;;3.36;100.00;98371.06;5023092;28;20037;-81
2022/12/13 09:59:33;;;;;;;68.32;26.40;;;;;;;3.35;100.00;98379.84;5003824;28;20018;-80
2022/12/13 10:02:16;;;;;;;69.15;27.55;;;;;;;3.37;100.00;98393.44;4987363;28;20530;-81
2022/12/13 10:04:43;;;;;;;70.45;28.55;;;;;;;3.43;100.00;98387.59;5023654;28;20034;-81
2022/12/13 10:07:21;;;;;;;73.22;29.48;;;;;;;3.66;100.00;98386.91;4984945;28;20471;-81
2022/12/13 10:09:49;;;;;;;61.45;25.70;;;;;;;3.71;100.00;98375.06;5004365;28;20061;-81
2022/12/13 10:12:16;;;;;;;63.25;26.30;;;;;;;3.83;100.00;98372.09;4985992;28;20475;-81
2022/12/13 10:14:50;;;;;;;63.13;25.67;;;;;;;3.86;100.00;98387.34;4986657;28;20116;-79
2022/12/13 10:17:20;;;;;;;58.28;25.08;;;;;;;3.99;100.00;98386.81;5001545;28;20116;-81
2022/12/13 10:19:50;;;;;;;60.67;25.95;;;;;;;4.08;100.00;98385.78;5017813;28;20025;-81
2022/12/13 10:22:17;;;;;;;64.18;25.13;;;;;;;4.43;100.00;98394.09;5024119;28;20029;-80
2022/12/13 10:24:54;;;;;;;59.40;25.13;;;;;;;4.63;100.00;98382.44;5020392;28;20053;-83
2022/12/13 10:27:33;;;;;;;58.58;25.50;;;;;;;4.66;100.00;98380.31;5019414;28;20033;-82
2022/12/13 10:30:05;;;;;;;51.92;22.33;;;;;;;4.51;100.00;98380.22;5006410;28;20065;-82
2022/12/13 10:32:33;;;;;;;49.22;23.58;;;;;;;4.65;100.00;98375.28;4999836;28;20029;-84
2022/12/13 10:35:10;;;;;;;49.58;21.88;;;;;;;4.72;100.00;98366.63;4980894;28;20559;-82
2022/12/13 10:37:36;;;;;;;47.30;22.20;;;;;;;4.75;100.00;98357.66;4999399;28;20141;-82
2022/12/13 10:40:03;;;;;;;49.40;21.65;;;;;;;4.92;100.00;98365.34;5004302;28;20030;-82
2022/12/13 10:42:29;;;;;;;45.10;21.50;;;;;;;4.63;100.00;98346.84;5002775;28;20026;-82
2022/12/13 10:45:13;;;;;;;47.75;22.00;;;;;;;4.87;100.00;98363.25;5004825;28;20410;-82
2022/12/13 10:47:42;;;;;;;47.80;21.77;;;;;;;4.86;100.00;98346.03;4999270;28;20037;-81
2022/12/13 10:50:23;;;;;;;44.53;21.30;;;;;;;4.98;100.00;98355.06;5001916;28;20044;-82
2022/12/13 10:52:48;;;;;;;44.75;22.30;;;;;;;4.89;100.00;98348.28;5002939;28;20037;-82
2022/12/13 10:55:31;;;;;;;47.92;22.02;;;;;;;4.94;100.00;98364.19;5001350;28;20096;-82
2022/12/13 10:58:05;;;;;;;45.97;21.77;;;;;;;5.04;100.00;98347.53;5004197;28;20503;-82
2022/12/13 11:00:45;;;;;;;49.65;23.08;;;;;;;5.22;100.00;98355.81;5004062;28;20120;-81
2022/12/13 11:03:28;;;;;;;48.92;21.00;;;;;;;5.19;100.00;98350.16;5002334;28;20132;-81
2022/12/13 11:06:12;;;;;;;43.53;20.60;;;;;;;5.25;100.00;98355.47;5003255;28;20109;-82
2022/12/13 11:08:38;;;;;;;46.55;21.02;;;;;;;5.22;100.00;98340.22;5003049;28;20407;-81
2022/12/13 11:11:06;;;;;;;44.28;20.80;;;;;;;4.97;100.00;98329.22;5005209;28;20119;-80
2022/12/13 11:13:46;;;;;;;42.28;20.08;;;;;;;4.95;100.00;98342.41;5017331;28;20030;-84
2022/12/13 11:16:41;;;;;;;42.10;19.45;;;;;;;5.06;100.00;98340.34;5003613;28;20513;-86
2022/12/13 11:19:22;;;;;;;38.47;18.75;;;;;;;5.07;100.00;98329.78;5010415;28;20056;-86
2022/12/13 11:21:49;;;;;;;38.58;18.55;;;;;;;5.00;100.00;98319.28;4987763;28;20502;-86
2022/12/13 11:24:23;;;;;;;37.35;19.08;;;;;;;5.24;100.00;98338.22;5005288;28;20113;-87
2022/12/13 11:26:57;;;;;;;38.97;19.20;;;;;;;5.07;100.00;98315.94;5008092;28;20021;-86